sensor_id;sensor_type;location;lat;lon;timestamp;pressure;altitude;pressure_sealevel;temperature;humidity
50123;BME280;36021;48.670;6.184;2023-01-28T00:00:44;99709.72;;;3.64;100.00
50123;BME280;36021;48.670;6.184;2023-01-28T00:03:09;99711.88;;;3.74;100.00
50123;BME280;36021;48.670;6.184;2023-01-28T00:05:35;99713.44;;;3.81;100.00
50123;BME280;36021;48.670;6.184;2023-01-28T00:08:00;99711.69;;;3.87;100.00
50123;BME280;36021;48.670;6.184;2023-01-28T00:10:26;99707.06;;;3.87;100.00
50123;BME280;36021;48.670;6.184;2023-01-28T00:12:51;99705.28;;;3.81;100.00
50123;BME280;36021;48.670;6.184;2023-01-28T00:15:17;99714.38;;;3.75;100.00
50123;BME280;36021;48.670;6.184;2023-01-28T00:17:42;99704.44;;;3.69;100.00
50123;BME280;36021;48.670;6.184;2023-01-28T00:20:08;99700.63;;;3.70;100.00
50123;BME280;36021;48.670;6.184;2023-01-28T00:22:34;99706.06;;;3.70;100.00
50123;BME280;36021;48.670;6.184;2023-01-28T00:24:59;99700.25;;;3.66;100.00
50123;BME280;36021;48.670;6.184;2023-01-28T00:27:25;99706.41;;;3.62;100.00
50123;BME280;36021;48.670;6.184;2023-01-28T00:29:52;99704.34;;;3.46;100.00
50123;BME280;36021;48.670;6.184;2023-01-28T00:32:21;99703.53;;;3.57;100.00
50123;BME280;36021;48.670;6.184;2023-01-28T00:34:48;99709.16;;;3.62;100.00
50123;BME280;36021;48.670;6.184;2023-01-28T00:37:14;99697.63;;;3.60;100.00
50123;BME280;36021;48.670;6.184;2023-01-28T00:39:40;99705.38;;;3.63;100.00
50123;BME280;36021;48.670;6.184;2023-01-28T00:42:06;99700.13;;;3.61;100.00
50123;BME280;36021;48.670;6.184;2023-01-28T00:44:31;99706.28;;;3.57;100.00
50123;BME280;36021;48.670;6.184;2023-01-28T00:46:57;99698.25;;;3.62;100.00
50123;BME280;36021;48.670;6.184;2023-01-28T00:49:26;99699.66;;;3.64;100.00
50123;BME280;36021;48.670;6.184;2023-01-28T00:51:52;99698.72;;;3.59;100.00
50123;BME280;36021;48.670;6.184;2023-01-28T00:54:17;99708.22;;;3.68;100.00
50123;BME280;36021;48.670;6.184;2023-01-28T00:56:44;99709.16;;;3.62;100.00
50123;BME280;36021;48.670;6.184;2023-01-28T00:59:09;99706.00;;;3.47;100.00
50123;BME280;36021;48.670;6.184;2023-01-28T01:01:34;99711.13;;;3.55;100.00
50123;BME280;36021;48.670;6.184;2023-01-28T01:04:00;99704.84;;;3.54;100.00
50123;BME280;36021;48.670;6.184;2023-01-28T01:06:33;99699.75;;;3.58;100.00
50123;BME280;36021;48.670;6.184;2023-01-28T01:09:00;99705.09;;;3.53;100.00
50123;BME280;36021;48.670;6.184;2023-01-28T01:11:25;99707.47;;;3.61;100.00
50123;BME280;36021;48.670;6.184;2023-01-28T01:13:52;99697.97;;;3.52;100.00
50123;BME280;36021;48.670;6.184;2023-01-28T01:16:19;99694.28;;;3.46;100.00
50123;BME280;36021;48.670;6.184;2023-01-28T01:18:47;99697.97;;;3.52;100.00
50123;BME280;36021;48.670;6.184;2023-01-28T01:21:15;99702.97;;;3.55;100.00
50123;BME280;36021;48.670;6.184;2023-01-28T01:23:43;99704.16;;;3.59;100.00
50123;BME280;36021;48.670;6.184;2023-01-28T01:26:10;99707.16;;;3.69;100.00
50123;BME280;36021;48.670;6.184;2023-01-28T01:28:37;99710.34;;;3.66;100.00
50123;BME280;36021;48.670;6.184;2023-01-28T01:31:09;99711.03;;;3.61;100.00
50123;BME280;36021;48.670;6.184;2023-01-28T01:33:35;99716.25;;;3.63;100.00
50123;BME280;36021;48.670;6.184;2023-01-28T01:36:01;99728.81;;;3.64;100.00
50123;BME280;36021;48.670;6.184;2023-01-28T01:38:27;99721.25;;;3.66;100.00
50123;BME280;36021;48.670;6.184;2023-01-28T01:40:55;99721.34;;;3.59;100.00
50123;BME280;36021;48.670;6.184;2023-01-28T01:43:22;99723.00;;;3.60;100.00
50123;BME280;36021;48.670;6.184;2023-01-28T01:45:58;99720.38;;;3.54;100.00
50123;BME280;36021;48.670;6.184;2023-01-28T01:48:29;99726.69;;;3.66;100.00
50123;BME280;36021;48.670;6.184;2023-01-28T01:50:59;99725.97;;;3.59;100.00
50123;BME280;36021;48.670;6.184;2023-01-28T01:53:26;99717.69;;;3.65;100.00
50123;BME280;36021;48.670;6.184;2023-01-28T01:55:53;99715.44;;;3.62;100.00
50123;BME280;36021;48.670;6.184;2023-01-28T01:58:23;99716.66;;;3.78;100.00
50123;BME280;36021;48.670;6.184;2023-01-28T02:00:51;99715.50;;;3.86;100.00
50123;BME280;36021;48.670;6.184;2023-01-28T02:03:17;99721.94;;;3.73;100.00
50123;BME280;36021;48.670;6.184;2023-01-28T02:05:44;99715.56;;;3.67;100.00
50123;BME280;36021;48.670;6.184;2023-01-28T02:08:09;99724.81;;;3.78;100.00
50123;BME280;36021;48.670;6.184;2023-01-28T02:10:51;99729.75;;;3.58;100.00
50123;BME280;36021;48.670;6.184;2023-01-28T02:13:20;99720.03;;;3.62;100.00
50123;BME280;36021;48.670;6.184;2023-01-28T02:15:46;99716.25;;;3.63;100.00
50123;BME280;36021;48.670;6.184;2023-01-28T02:18:12;99723.16;;;3.77;100.00
50123;BME280;36021;48.670;6.184;2023-01-28T02:30:43;99727.88;;;3.70;100.00
50123;BME280;36021;48.670;6.184;2023-01-28T02:33:46;99731.69;;;3.69;100.00
50123;BME280;36021;48.670;6.184;2023-01-28T02:36:17;99725.03;;;3.65;100.00
50123;BME280;36021;48.670;6.184;2023-01-28T02:38:47;99736.41;;;3.62;100.00
50123;BME280;36021;48.670;6.184;2023-01-28T02:41:18;99733.19;;;3.65;100.00
50123;BME280;36021;48.670;6.184;2023-01-28T02:43:47;99740.81;;;3.75;100.00
50123;BME280;36021;48.670;6.184;2023-01-28T02:46:14;99731.59;;;3.76;100.00
50123;BME280;36021;48.670;6.184;2023-01-28T02:49:05;99734.88;;;3.78;100.00
50123;BME280;36021;48.670;6.184;2023-01-28T02:56:48;99736.97;;;3.64;100.00
50123;BME280;36021;48.670;6.184;2023-01-28T03:02:02;99741.56;;;3.52;100.00
50123;BME280;36021;48.670;6.184;2023-01-28T03:04:34;99743.47;;;3.51;100.00
50123;BME280;36021;48.670;6.184;2023-01-28T03:07:02;99736.03;;;3.70;100.00
50123;BME280;36021;48.670;6.184;2023-01-28T03:09:29;99738.06;;;3.63;100.00
50123;BME280;36021;48.670;6.184;2023-01-28T03:12:03;99739.34;;;3.60;100.00
50123;BME280;36021;48.670;6.184;2023-01-28T03:14:59;99738.84;;;3.52;100.00
50123;BME280;36021;48.670;6.184;2023-01-28T03:17:51;99754.59;;;3.50;100.00
50123;BME280;36021;48.670;6.184;2023-01-28T03:20:40;99751.06;;;3.61;100.00
50123;BME280;36021;48.670;6.184;2023-01-28T03:23:27;99747.88;;;3.64;100.00
50123;BME280;36021;48.670;6.184;2023-01-28T03:26:14;99743.72;;;3.50;100.00
50123;BME280;36021;48.670;6.184;2023-01-28T03:29:05;99750.94;;;3.56;100.00
50123;BME280;36021;48.670;6.184;2023-01-28T03:31:52;99741.19;;;3.48;100.00
50123;BME280;36021;48.670;6.184;2023-01-28T03:34:37;99741.75;;;3.68;100.00
50123;BME280;36021;48.670;6.184;2023-01-28T03:37:22;99735.84;;;3.83;100.00
50123;BME280;36021;48.670;6.184;2023-01-28T03:40:05;99735.81;;;3.72;100.00
50123;BME280;36021;48.670;6.184;2023-01-28T03:42:32;99738.66;;;3.65;100.00
50123;BME280;36021;48.670;6.184;2023-01-28T03:45:17;99743.84;;;3.66;100.00
50123;BME280;36021;48.670;6.184;2023-01-28T03:47:44;99746.94;;;3.70;100.00
50123;BME280;36021;48.670;6.184;2023-01-28T03:50:11;99742.13;;;3.72;100.00
50123;BME280;36021;48.670;6.184;2023-01-28T03:52:49;99742.13;;;3.72;100.00
50123;BME280;36021;48.670;6.184;2023-01-28T03:55:26;99744.69;;;3.67;100.00
50123;BME280;36021;48.670;6.184;2023-01-28T03:57:52;99747.19;;;3.68;100.00
50123;BME280;36021;48.670;6.184;2023-01-28T04:00:18;99749.81;;;3.75;100.00
50123;BME280;36021;48.670;6.184;2023-01-28T04:02:44;99752.19;;;3.72;100.00
50123;BME280;36021;48.670;6.184;2023-01-28T04:05:14;99763.28;;;3.58;100.00
50123;BME280;36021;48.670;6.184;2023-01-28T04:07:46;99772.13;;;3.54;100.00
50123;BME280;36021;48.670;6.184;2023-01-28T04:10:30;99771.06;;;3.55;100.00
50123;BME280;36021;48.670;6.184;2023-01-28T04:13:04;99762.06;;;3.54;100.00
50123;BME280;36021;48.670;6.184;2023-01-28T04:15:30;99769.38;;;3.42;100.00
50123;BME280;36021;48.670;6.184;2023-01-28T04:17:56;99765.91;;;3.35;100.00
50123;BME280;36021;48.670;6.184;2023-01-28T04:20:27;99768.66;;;3.47;100.00
50123;BME280;36021;48.670;6.184;2023-01-28T04:22:56;99776.84;;;3.47;100.00
50123;BME280;36021;48.670;6.184;2023-01-28T04:25:21;99773.53;;;3.45;100.00
50123;BME280;36021;48.670;6.184;2023-01-28T04:27:47;99772.59;;;3.51;100.00
50123;BME280;36021;48.670;6.184;2023-01-28T04:30:17;99785.00;;;3.47;100.00
50123;BME280;36021;48.670;6.184;2023-01-28T04:33:21;99784.56;;;3.50;100.00
50123;BME280;36021;48.670;6.184;2023-01-28T04:35:52;99783.03;;;3.54;100.00
50123;BME280;36021;48.670;6.184;2023-01-28T04:38:34;99785.00;;;3.47;100.00
50123;BME280;36021;48.670;6.184;2023-01-28T04:41:18;99795.41;;;3.38;100.00
50123;BME280;36021;48.670;6.184;2023-01-28T04:43:44;99798.50;;;3.42;100.00
50123;BME280;36021;48.670;6.184;2023-01-28T04:46:18;99793.72;;;3.37;100.00
50123;BME280;36021;48.670;6.184;2023-01-28T04:49:12;99797.91;;;3.40;100.00
50123;BME280;36021;48.670;6.184;2023-01-28T04:51:39;99804.53;;;3.44;100.00
50123;BME280;36021;48.670;6.184;2023-01-28T04:54:18;99813.41;;;3.39;100.00
50123;BME280;36021;48.670;6.184;2023-01-28T04:56:44;99808.19;;;3.38;100.00
50123;BME280;36021;48.670;6.184;2023-01-28T04:59:10;99809.31;;;3.48;100.00
50123;BME280;36021;48.670;6.184;2023-01-28T05:01:36;99809.09;;;3.50;100.00
50123;BME280;36021;48.670;6.184;2023-01-28T05:04:02;99798.63;;;3.47;100.00
50123;BME280;36021;48.670;6.184;2023-01-28T05:06:31;99803.44;;;3.33;100.00
50123;BME280;36021;48.670;6.184;2023-01-28T05:09:00;99793.81;;;3.49;100.00
50123;BME280;36021;48.670;6.184;2023-01-28T05:11:26;99806.00;;;3.46;100.00
50123;BME280;36021;48.670;6.184;2023-01-28T05:13:57;99797.22;;;3.44;100.00
50123;BME280;36021;48.670;6.184;2023-01-28T05:16:25;99805.47;;;3.38;100.00
50123;BME280;36021;48.670;6.184;2023-01-28T05:18:50;99800.19;;;3.43;100.00
50123;BME280;36021;48.670;6.184;2023-01-28T05:21:18;99807.44;;;3.49;100.00
50123;BME280;36021;48.670;6.184;2023-01-28T05:23:49;99816.53;;;3.25;100.00
50123;BME280;36021;48.670;6.184;2023-01-28T05:26:16;99815.69;;;3.42;100.00
50123;BME280;36021;48.670;6.184;2023-01-28T05:28:44;99817.19;;;3.38;100.00
50123;BME280;36021;48.670;6.184;2023-01-28T05:31:09;99815.97;;;3.34;100.00
50123;BME280;36021;48.670;6.184;2023-01-28T05:33:35;99809.19;;;3.25;100.00
50123;BME280;36021;48.670;6.184;2023-01-28T05:36:02;99827.78;;;3.28;100.00
50123;BME280;36021;48.670;6.184;2023-01-28T05:38:29;99826.97;;;3.28;100.00
50123;BME280;36021;48.670;6.184;2023-01-28T05:40:55;99823.78;;;3.31;100.00
50123;BME280;36021;48.670;6.184;2023-01-28T05:43:21;99830.69;;;3.33;100.00
50123;BME280;36021;48.670;6.184;2023-01-28T05:46:07;99832.50;;;3.39;100.00
50123;BME280;36021;48.670;6.184;2023-01-28T05:49:08;99835.88;;;3.35;100.00
50123;BME280;36021;48.670;6.184;2023-01-28T05:51:52;99836.22;;;3.27;100.00
50123;BME280;36021;48.670;6.184;2023-01-28T05:54:19;99834.31;;;3.09;100.00
50123;BME280;36021;48.670;6.184;2023-01-28T05:56:46;99833.56;;;3.20;100.00
50123;BME280;36021;48.670;6.184;2023-01-28T05:59:12;99845.50;;;3.19;100.00
50123;BME280;36021;48.670;6.184;2023-01-28T06:01:40;99837.25;;;3.26;100.00
50123;BME280;36021;48.670;6.184;2023-01-28T06:04:06;99843.47;;;3.33;100.00
50123;BME280;36021;48.670;6.184;2023-01-28T06:06:32;99847.69;;;3.29;100.00
50123;BME280;36021;48.670;6.184;2023-01-28T06:08:58;99854.81;;;3.30;100.00
50123;BME280;36021;48.670;6.184;2023-01-28T06:11:29;99849.97;;;3.32;100.00
50123;BME280;36021;48.670;6.184;2023-01-28T06:13:59;99854.06;;;3.23;100.00
50123;BME280;36021;48.670;6.184;2023-01-28T06:16:30;99854.66;;;3.25;100.00
50123;BME280;36021;48.670;6.184;2023-01-28T06:19:02;99850.28;;;3.24;100.00
50123;BME280;36021;48.670;6.184;2023-01-28T06:21:28;99849.84;;;3.27;100.00
50123;BME280;36021;48.670;6.184;2023-01-28T06:23:54;99854.06;;;3.23;100.00
50123;BME280;36021;48.670;6.184;2023-01-28T06:26:19;99852.84;;;3.19;100.00
50123;BME280;36021;48.670;6.184;2023-01-28T06:28:46;99852.25;;;3.17;100.00
50123;BME280;36021;48.670;6.184;2023-01-28T06:31:13;99854.06;;;3.23;100.00
50123;BME280;36021;48.670;6.184;2023-01-28T06:33:39;99856.78;;;3.23;100.00
50123;BME280;36021;48.670;6.184;2023-01-28T06:36:04;99855.09;;;3.22;100.00
50123;BME280;36021;48.670;6.184;2023-01-28T06:38:33;99854.41;;;3.08;100.00
50123;BME280;36021;48.670;6.184;2023-01-28T06:41:00;99867.97;;;3.14;100.00
50123;BME280;36021;48.670;6.184;2023-01-28T06:43:26;99863.88;;;3.05;100.00
50123;BME280;36021;48.670;6.184;2023-01-28T06:45:56;99860.88;;;3.13;100.00
50123;BME280;36021;48.670;6.184;2023-01-28T06:48:22;99863.59;;;3.13;100.00
50123;BME280;36021;48.670;6.184;2023-01-28T06:50:48;99863.13;;;3.17;100.00
50123;BME280;36021;48.670;6.184;2023-01-28T06:53:14;99875.25;;;3.21;100.00
50123;BME280;36021;48.670;6.184;2023-01-28T06:55:42;99872.53;;;3.21;100.00
50123;BME280;36021;48.670;6.184;2023-01-28T06:58:07;99881.97;;;3.18;100.00
50123;BME280;36021;48.670;6.184;2023-01-28T07:00:33;99867.38;;;3.12;100.00
50123;BME280;36021;48.670;6.184;2023-01-28T07:02:58;99876.91;;;3.03;100.00
50123;BME280;36021;48.670;6.184;2023-01-28T07:05:24;99879.22;;;3.00;100.00
50123;BME280;36021;48.670;6.184;2023-01-28T07:07:50;99880.47;;;3.04;100.00
50123;BME280;36021;48.670;6.184;2023-01-28T07:10:16;99882.56;;;3.02;100.00
50123;BME280;36021;48.670;6.184;2023-01-28T07:12:42;99883.38;;;3.02;100.00
50123;BME280;36021;48.670;6.184;2023-01-28T07:15:07;99885.00;;;3.10;100.00
50123;BME280;36021;48.670;6.184;2023-01-28T07:17:37;99881.13;;;2.99;100.00
50123;BME280;36021;48.670;6.184;2023-01-28T07:20:03;99888.84;;;3.02;100.00
50123;BME280;36021;48.670;6.184;2023-01-28T07:22:29;99896.03;;;2.97;100.00
50123;BME280;36021;48.670;6.184;2023-01-28T07:24:55;99905.69;;;2.93;100.00
50123;BME280;36021;48.670;6.184;2023-01-28T07:27:22;99905.69;;;2.93;100.00
50123;BME280;36021;48.670;6.184;2023-01-28T07:29:48;99902.44;;;3.02;100.00
50123;BME280;36021;48.670;6.184;2023-01-28T07:32:15;99909.50;;;2.85;100.00
50123;BME280;36021;48.670;6.184;2023-01-28T07:34:41;99901.22;;;2.98;100.00
50123;BME280;36021;48.670;6.184;2023-01-28T07:37:07;99904.41;;;2.95;100.00
50123;BME280;36021;48.670;6.184;2023-01-28T07:39:33;99914.84;;;2.98;100.00
50123;BME280;36021;48.670;6.184;2023-01-28T07:41:59;99897.44;;;2.99;100.00
50123;BME280;36021;48.670;6.184;2023-01-28T07:44:35;99913.41;;;2.96;100.00
50123;BME280;36021;48.670;6.184;2023-01-28T07:47:02;99909.84;;;2.95;100.00
50123;BME280;36021;48.670;6.184;2023-01-28T07:49:29;99917.41;;;2.93;100.00
50123;BME280;36021;48.670;6.184;2023-01-28T07:51:55;99918.00;;;2.95;100.00
50123;BME280;36021;48.670;6.184;2023-01-28T07:54:24;99919.81;;;3.01;100.00
50123;BME280;36021;48.670;6.184;2023-01-28T08:03:46;99917.66;;;3.10;100.00
50123;BME280;36021;48.670;6.184;2023-01-28T08:06:12;99920.16;;;3.11;100.00
50123;BME280;36021;48.670;6.184;2023-01-28T08:08:38;99921.81;;;3.12;100.00
50123;BME280;36021;48.670;6.184;2023-01-28T08:11:09;99918.97;;;3.07;100.00
50123;BME280;36021;48.670;6.184;2023-01-28T08:13:37;99928.56;;;3.10;100.00
50123;BME280;36021;48.670;6.184;2023-01-28T08:16:03;99915.16;;;3.08;100.00
50123;BME280;36021;48.670;6.184;2023-01-28T08:18:29;99927.66;;;3.16;100.00
50123;BME280;36021;48.670;6.184;2023-01-28T08:20:55;99930.16;;;3.17;100.00
50123;BME280;36021;48.670;6.184;2023-01-28T08:23:20;99929.09;;;3.19;100.00
50123;BME280;36021;48.670;6.184;2023-01-28T08:25:47;99923.50;;;3.32;100.00
50123;BME280;36021;48.670;6.184;2023-01-28T08:28:13;99928.28;;;3.36;100.00
50123;BME280;36021;48.670;6.184;2023-01-28T08:30:39;99927.38;;;3.42;100.00
50123;BME280;36021;48.670;6.184;2023-01-28T08:33:06;99927.00;;;3.39;100.00
50123;BME280;36021;48.670;6.184;2023-01-28T08:35:32;99934.28;;;3.45;100.00
50123;BME280;36021;48.670;6.184;2023-01-28T08:37:59;99938.94;;;3.38;100.00
50123;BME280;36021;48.670;6.184;2023-01-28T08:40:25;99937.44;;;3.42;100.00
50123;BME280;36021;48.670;6.184;2023-01-28T08:42:51;99938.28;;;3.42;100.00
50123;BME280;36021;48.670;6.184;2023-01-28T08:45:17;99936.31;;;3.49;100.00
50123;BME280;36021;48.670;6.184;2023-01-28T08:47:47;99934.34;;;3.38;100.00
50123;BME280;36021;48.670;6.184;2023-01-28T08:50:14;99942.63;;;3.50;100.00
50123;BME280;36021;48.670;6.184;2023-01-28T08:52:40;99937.31;;;3.55;100.00
50123;BME280;36021;48.670;6.184;2023-01-28T08:55:10;99940.88;;;3.55;100.00
50123;BME280;36021;48.670;6.184;2023-01-28T08:57:36;99941.31;;;3.52;100.00
50123;BME280;36021;48.670;6.184;2023-01-28T09:00:04;99935.94;;;3.64;100.00
50123;BME280;36021;48.670;6.184;2023-01-28T09:02:30;99939.03;;;3.67;100.00
50123;BME280;36021;48.670;6.184;2023-01-28T09:04:55;99936.69;;;3.71;100.00
50123;BME280;36021;48.670;6.184;2023-01-28T09:07:21;99926.75;;;3.77;100.00
50123;BME280;36021;48.670;6.184;2023-01-28T09:09:46;99932.00;;;3.78;100.00
50123;BME280;36021;48.670;6.184;2023-01-28T09:12:12;99939.34;;;3.78;100.00
50123;BME280;36021;48.670;6.184;2023-01-28T09:14:37;99939.41;;;3.89;100.00
50123;BME280;36021;48.670;6.184;2023-01-28T09:17:03;99945.06;;;4.06;100.00
50123;BME280;36021;48.670;6.184;2023-01-28T09:19:29;99937.88;;;4.11;100.00
50123;BME280;36021;48.670;6.184;2023-01-28T09:21:55;99940.53;;;4.30;100.00
50123;BME280;36021;48.670;6.184;2023-01-28T09:24:21;99945.22;;;4.41;100.00
50123;BME280;36021;48.670;6.184;2023-01-28T09:26:49;99938.75;;;4.35;100.00
50123;BME280;36021;48.670;6.184;2023-01-28T09:29:16;99940.88;;;4.51;100.00
50123;BME280;36021;48.670;6.184;2023-01-28T09:31:42;99944.50;;;4.45;100.00
50123;BME280;36021;48.670;6.184;2023-01-28T09:34:08;99949.69;;;4.35;100.00
50123;BME280;36021;48.670;6.184;2023-01-28T09:36:34;99943.22;;;4.48;100.00
50123;BME280;36021;48.670;6.184;2023-01-28T09:39:01;99947.94;;;4.41;100.00
50123;BME280;36021;48.670;6.184;2023-01-28T09:41:28;99958.59;;;4.42;100.00
50123;BME280;36021;48.670;6.184;2023-01-28T09:46:27;99958.03;;;4.52;100.00
50123;BME280;36021;48.670;6.184;2023-01-28T09:48:56;99959.59;;;4.48;100.00
50123;BME280;36021;48.670;6.184;2023-01-28T09:51:28;99963.84;;;4.44;100.00
50123;BME280;36021;48.670;6.184;2023-01-28T09:53:56;99965.63;;;4.38;100.00
50123;BME280;36021;48.670;6.184;2023-01-28T09:56:25;99963.19;;;4.30;100.00
50123;BME280;36021;48.670;6.184;2023-01-28T09:58:53;99964.72;;;4.26;100.00
50123;BME280;36021;48.670;6.184;2023-01-28T10:04:05;99954.91;;;4.37;100.00
50123;BME280;36021;48.670;6.184;2023-01-28T10:06:49;99970.34;;;4.43;100.00
50123;BME280;36021;48.670;6.184;2023-01-28T10:09:20;99963.66;;;4.27;100.00
50123;BME280;36021;48.670;6.184;2023-01-28T10:11:57;99962.78;;;4.45;100.00
50123;BME280;36021;48.670;6.184;2023-01-28T10:14:37;99960.31;;;4.55;100.00
50123;BME280;36021;48.670;6.184;2023-01-28T10:17:20;99965.75;;;4.55;100.00
50123;BME280;36021;48.670;6.184;2023-01-28T10:19:51;99965.31;;;4.58;100.00
50123;BME280;36021;48.670;6.184;2023-01-28T10:22:23;99962.44;;;4.53;100.00
50123;BME280;36021;48.670;6.184;2023-01-28T10:24:52;99968.28;;;4.68;100.00
50123;BME280;36021;48.670;6.184;2023-01-28T10:27:20;99968.91;;;4.70;100.00
50123;BME280;36021;48.670;6.184;2023-01-28T10:29:46;99966.34;;;4.87;100.00
50123;BME280;36021;48.670;6.184;2023-01-28T10:34:39;99966.09;;;4.88;100.00
50123;BME280;36021;48.670;6.184;2023-01-28T10:37:05;99963.41;;;5.00;100.00
50123;BME280;36021;48.670;6.184;2023-01-28T10:39:30;99966.25;;;4.93;100.00
50123;BME280;36021;48.670;6.184;2023-01-28T10:41:58;99964.00;;;5.13;100.00
50123;BME280;36021;48.670;6.184;2023-01-28T10:44:39;99958.16;;;4.98;100.00
50123;BME280;36021;48.670;6.184;2023-01-28T10:47:12;99960.06;;;5.09;100.00
50123;BME280;36021;48.670;6.184;2023-01-28T10:49:48;99962.66;;;5.04;100.00
50123;BME280;36021;48.670;6.184;2023-01-28T10:52:17;99968.13;;;5.04;100.00
50123;BME280;36021;48.670;6.184;2023-01-28T10:54:43;99967.66;;;5.07;100.00
50123;BME280;36021;48.670;6.184;2023-01-28T10:57:11;99959.94;;;4.93;100.00
50123;BME280;36021;48.670;6.184;2023-01-28T10:59:37;99964.91;;;4.84;100.00
50123;BME280;36021;48.670;6.184;2023-01-28T11:07:26;99975.38;;;4.87;100.00
50123;BME280;36021;48.670;6.184;2023-01-28T11:09:51;99968.91;;;4.70;100.00
50123;BME280;36021;48.670;6.184;2023-01-28T11:14:48;99972.13;;;4.79;100.00
50123;BME280;36021;48.670;6.184;2023-01-28T11:17:15;99972.13;;;4.79;100.00
50123;BME280;36021;48.670;6.184;2023-01-28T11:19:41;99975.97;;;4.89;100.00
50123;BME280;36021;48.670;6.184;2023-01-28T11:22:13;99974.19;;;4.95;100.00
50123;BME280;36021;48.670;6.184;2023-01-28T11:24:45;99969.69;;;5.00;100.00
50123;BME280;36021;48.670;6.184;2023-01-28T11:27:15;99961.59;;;5.05;100.00
50123;BME280;36021;48.670;6.184;2023-01-28T11:29:41;99964.69;;;5.20;100.00
50123;BME280;36021;48.670;6.184;2023-01-28T11:32:17;99974.34;;;5.23;100.00
50123;BME280;36021;48.670;6.184;2023-01-28T11:34:50;99959.03;;;5.10;100.00
50123;BME280;36021;48.670;6.184;2023-01-28T11:37:16;99956.50;;;5.20;100.00
50123;BME280;36021;48.670;6.184;2023-01-28T11:39:46;99962.69;;;5.28;100.00
50123;BME280;36021;48.670;6.184;2023-01-28T11:42:19;99959.97;;;5.28;100.00
50123;BME280;36021;48.670;6.184;2023-01-28T11:44:45;99961.50;;;5.23;100.00
50123;BME280;36021;48.670;6.184;2023-01-28T12:02:44;99954.25;;;5.06;100.00
50123;BME280;36021;48.670;6.184;2023-01-28T12:10:46;99948.06;;;4.87;100.00
50123;BME280;36021;48.670;6.184;2023-01-28T12:13:24;99944.50;;;4.98;100.00
50123;BME280;36021;48.670;6.184;2023-01-28T12:16:02;99942.72;;;4.92;100.00
50123;BME280;36021;48.670;6.184;2023-01-28T12:26:25;99949.81;;;4.82;100.00
50123;BME280;36021;48.670;6.184;2023-01-28T12:31:28;99947.28;;;4.68;100.00
50123;BME280;36021;48.670;6.184;2023-01-28T12:42:14;99942.56;;;4.64;100.00
50123;BME280;36021;48.670;6.184;2023-01-28T12:44:43;99944.72;;;4.73;100.00
50123;BME280;36021;48.670;6.184;2023-01-28T12:47:14;99940.78;;;4.81;100.00
50123;BME280;36021;48.670;6.184;2023-01-28T12:49:47;99946.97;;;4.77;100.00
50123;BME280;36021;48.670;6.184;2023-01-28T12:52:19;99935.09;;;4.71;100.00
50123;BME280;36021;48.670;6.184;2023-01-28T12:57:28;99938.88;;;4.70;100.00
50123;BME280;36021;48.670;6.184;2023-01-28T13:02:40;99941.72;;;4.63;100.00
50123;BME280;36021;48.670;6.184;2023-01-28T13:05:08;99945.66;;;4.79;100.00
50123;BME280;36021;48.670;6.184;2023-01-28T13:10:08;99945.53;;;4.74;100.00
50123;BME280;36021;48.670;6.184;2023-01-28T13:12:35;99940.28;;;4.61;100.00
50123;BME280;36021;48.670;6.184;2023-01-28T13:15:04;99946.81;;;4.60;100.00
50123;BME280;36021;48.670;6.184;2023-01-28T13:17:30;99941.81;;;4.57;100.00
50123;BME280;36021;48.670;6.184;2023-01-28T13:19:59;99939.69;;;4.59;100.00
50123;BME280;36021;48.670;6.184;2023-01-28T13:22:32;99947.53;;;4.67;100.00
50123;BME280;36021;48.670;6.184;2023-01-28T13:27:58;99945.66;;;4.79;100.00
50123;BME280;36021;48.670;6.184;2023-01-28T13:30:28;99943.19;;;4.89;100.00
50123;BME280;36021;48.670;6.184;2023-01-28T13:33:00;99946.03;;;4.94;100.00
50123;BME280;36021;48.670;6.184;2023-01-28T13:35:30;99945.34;;;4.87;100.00
50123;BME280;36021;48.670;6.184;2023-01-28T13:37:56;99950.19;;;4.85;100.00
50123;BME280;36021;48.670;6.184;2023-01-28T13:40:24;99955.25;;;4.70;100.00
50123;BME280;36021;48.670;6.184;2023-01-28T13:42:59;99962.50;;;4.76;100.00
50123;BME280;36021;48.670;6.184;2023-01-28T13:45:26;99967.97;;;4.76;100.00
50123;BME280;36021;48.670;6.184;2023-01-28T13:47:56;99971.19;;;4.73;100.00
50123;BME280;36021;48.670;6.184;2023-01-28T13:50:23;99975.78;;;4.72;100.00
50123;BME280;36021;48.670;6.184;2023-01-28T13:52:54;99979.72;;;4.77;100.00
50123;BME280;36021;48.670;6.184;2023-01-28T13:55:24;99980.31;;;4.67;100.00
50123;BME280;36021;48.670;6.184;2023-01-28T14:15:57;99993.34;;;4.65;100.00
50123;BME280;36021;48.670;6.184;2023-01-28T14:18:34;100009.09;;;4.51;100.00
50123;BME280;36021;48.670;6.184;2023-01-28T14:21:01;100009.59;;;4.60;100.00
50123;BME280;36021;48.670;6.184;2023-01-28T14:23:27;100005.28;;;4.52;100.00
50123;BME280;36021;48.670;6.184;2023-01-28T14:28:34;100018.34;;;4.50;100.00
50123;BME280;36021;48.670;6.184;2023-01-28T14:31:05;100018.44;;;4.44;100.00
50123;BME280;36021;48.670;6.184;2023-01-28T14:33:33;100012.97;;;4.44;100.00
50123;BME280;36021;48.670;6.184;2023-01-28T14:35:59;100023.41;;;4.47;100.00
50123;BME280;36021;48.670;6.184;2023-01-28T14:38:25;100024.16;;;4.54;100.00
50123;BME280;36021;48.670;6.184;2023-01-28T14:40:53;100027.94;;;4.53;100.00
50123;BME280;36021;48.670;6.184;2023-01-28T14:43:21;100033.41;;;4.53;100.00
50123;BME280;36021;48.670;6.184;2023-01-28T14:48:24;100032.19;;;4.49;100.00
50123;BME280;36021;48.670;6.184;2023-01-28T14:53:41;100036.47;;;4.45;100.00
50123;BME280;36021;48.670;6.184;2023-01-28T14:58:56;100030.28;;;4.38;100.00
50123;BME280;36021;48.670;6.184;2023-01-28T15:01:27;100029.47;;;4.49;100.00
50123;BME280;36021;48.670;6.184;2023-01-28T15:03:53;100029.09;;;4.45;100.00
50123;BME280;36021;48.670;6.184;2023-01-28T15:06:23;100037.66;;;4.49;100.00
50123;BME280;36021;48.670;6.184;2023-01-28T15:08:50;100037.53;;;4.44;100.00
50123;BME280;36021;48.670;6.184;2023-01-28T15:11:17;100036.81;;;4.48;100.00